createdAt,value
2017-05-31T00:00:29.297Z,17.40
2017-05-31T00:02:57.177Z,16.90
2017-05-31T00:05:25.057Z,16.70
2017-05-31T00:07:52.984Z,16.70
2017-05-31T00:10:20.864Z,16.60
2017-05-31T00:12:48.757Z,16.60
2017-05-31T00:15:16.529Z,16.60
2017-05-31T00:17:44.412Z,16.60
2017-05-31T00:20:12.316Z,16.60
2017-05-31T00:22:40.210Z,16.40
2017-05-31T00:25:08.089Z,16.40
2017-05-31T00:27:35.956Z,16.40
2017-05-31T00:30:03.870Z,16.40
2017-05-31T00:32:31.352Z,16.40
2017-05-31T00:34:59.221Z,16.40
2017-05-31T00:37:26.739Z,16.40
2017-05-31T00:39:54.616Z,16.50
2017-05-31T00:42:22.489Z,16.70
2017-05-31T00:44:50.410Z,16.60
2017-05-31T00:47:18.282Z,16.40
2017-05-31T00:49:46.277Z,16.50
2017-05-31T00:52:14.178Z,16.30
2017-05-31T00:54:42.070Z,16.30
2017-05-31T00:57:09.964Z,16.50
2017-05-31T00:59:38.098Z,16.80
2017-05-31T01:02:05.977Z,16.60
2017-05-31T01:04:33.859Z,16.60
2017-05-31T01:07:02.103Z,16.40
2017-05-31T01:09:29.615Z,16.40
2017-05-31T01:11:57.491Z,16.70
2017-05-31T01:14:25.534Z,16.60
2017-05-31T01:16:53.420Z,16.30
2017-05-31T01:19:20.915Z,16.30
2017-05-31T01:21:48.801Z,16.40
2017-05-31T01:24:16.280Z,16.40
2017-05-31T01:26:44.165Z,16.30
2017-05-31T01:29:12.369Z,16.30
2017-05-31T01:31:40.236Z,16.50
2017-05-31T01:34:07.724Z,16.50
2017-05-31T01:36:35.241Z,16.40
2017-05-31T01:39:02.723Z,16.60
2017-05-31T01:41:30.206Z,16.60
2017-05-31T01:43:58.220Z,16.80
2017-05-31T01:46:26.095Z,17.00
2017-05-31T01:48:53.581Z,17.00
2017-05-31T01:51:21.509Z,16.90
2017-05-31T01:53:49.386Z,16.90
2017-05-31T01:56:16.868Z,16.90
2017-05-31T01:58:44.775Z,17.00
2017-05-31T02:01:12.653Z,17.00
2017-05-31T02:03:40.145Z,17.00
2017-05-31T02:06:08.071Z,17.00
2017-05-31T02:08:35.946Z,16.60
2017-05-31T02:11:03.821Z,16.60
2017-05-31T02:13:31.335Z,16.60
2017-05-31T02:15:59.205Z,16.70
2017-05-31T02:18:27.086Z,16.80
2017-05-31T02:20:55.021Z,16.80
2017-05-31T02:23:22.914Z,16.60
2017-05-31T02:25:51.056Z,16.20
2017-05-31T02:28:19.287Z,16.00
2017-05-31T02:30:47.192Z,15.90
2017-05-31T02:33:15.091Z,15.90
2017-05-31T02:35:43.005Z,15.90
2017-05-31T02:38:10.903Z,16.00
2017-05-31T02:40:38.799Z,16.00
2017-05-31T02:43:06.685Z,16.10
2017-05-31T02:45:34.578Z,16.10
2017-05-31T02:48:02.470Z,16.00
2017-05-31T02:50:30.580Z,16.10
2017-05-31T02:52:58.458Z,16.20
2017-05-31T02:55:26.341Z,16.40
2017-05-31T02:57:54.362Z,16.40
2017-05-31T03:00:21.843Z,16.40
2017-05-31T03:02:49.323Z,16.20
2017-05-31T03:05:17.463Z,16.60
2017-05-31T03:07:45.363Z,16.20
2017-05-31T03:10:13.254Z,16.30
2017-05-31T03:12:41.178Z,16.40
2017-05-31T03:15:09.053Z,16.40
2017-05-31T03:17:36.538Z,16.40
2017-05-31T03:20:04.464Z,16.30
2017-05-31T03:22:32.354Z,16.10
2017-05-31T03:25:00.240Z,16.00
2017-05-31T03:27:28.344Z,16.10
2017-05-31T03:29:56.222Z,16.30
2017-05-31T03:32:24.103Z,16.00
2017-05-31T03:34:52.023Z,16.10
2017-05-31T03:37:19.506Z,16.10
2017-05-31T03:39:46.998Z,16.20
2017-05-31T03:42:14.932Z,16.00
2017-05-31T03:44:42.818Z,15.90
2017-05-31T03:47:10.909Z,15.90
2017-05-31T03:49:39.022Z,16.00
2017-05-31T03:52:06.924Z,15.90
2017-05-31T03:54:34.826Z,16.00
2017-05-31T03:57:02.752Z,15.90
2017-05-31T03:59:30.631Z,16.20
2017-05-31T04:01:58.505Z,16.30
2017-05-31T04:04:26.410Z,16.20
2017-05-31T04:06:54.290Z,16.00
2017-05-31T04:09:22.174Z,15.90
2017-05-31T04:11:50.157Z,16.00
2017-05-31T04:14:18.039Z,16.00
2017-05-31T04:16:45.941Z,16.00
2017-05-31T04:19:13.838Z,16.10
2017-05-31T04:21:41.731Z,16.10
2017-05-31T04:24:09.611Z,16.30
2017-05-31T04:26:37.543Z,16.60
2017-05-31T04:29:05.426Z,16.80
2017-05-31T04:31:33.308Z,16.90
2017-05-31T04:34:01.214Z,16.80
2017-05-31T04:36:29.538Z,16.80
2017-05-31T04:38:57.413Z,16.80
2017-05-31T04:41:25.818Z,16.70
2017-05-31T04:43:53.718Z,16.70
2017-05-31T04:46:21.606Z,16.90
2017-05-31T04:48:49.833Z,16.90
2017-05-31T04:51:17.740Z,16.90
2017-05-31T04:53:45.638Z,16.50
2017-05-31T04:56:13.914Z,16.40
2017-05-31T04:58:42.153Z,16.40
2017-05-31T05:01:09.632Z,16.40
2017-05-31T05:03:37.154Z,16.40
2017-05-31T05:06:04.634Z,16.50
2017-05-31T05:08:32.691Z,16.40
2017-05-31T05:11:00.502Z,16.40
2017-05-31T05:13:29.011Z,16.60
2017-05-31T05:15:56.890Z,16.50
2017-05-31T05:18:24.810Z,16.40
2017-05-31T05:20:52.686Z,16.50
2017-05-31T05:23:20.558Z,16.40
2017-05-31T05:25:48.813Z,16.50
2017-05-31T05:28:16.693Z,16.40
2017-05-31T05:30:44.571Z,16.60
2017-05-31T05:33:12.987Z,16.60
2017-05-31T05:35:40.880Z,16.60
2017-05-31T05:38:08.758Z,16.80
2017-05-31T05:40:36.670Z,16.50
2017-05-31T05:43:04.854Z,16.60
2017-05-31T05:45:32.730Z,16.60
2017-05-31T05:48:00.730Z,16.40
2017-05-31T05:50:28.620Z,16.50
2017-05-31T05:52:56.491Z,16.40
2017-05-31T05:55:24.730Z,16.60
2017-05-31T05:57:52.624Z,16.70
2017-05-31T06:00:20.526Z,16.40
2017-05-31T06:02:48.463Z,16.60
2017-05-31T06:05:16.335Z,16.70
2017-05-31T06:07:44.213Z,16.70
2017-05-31T06:10:12.428Z,16.70
2017-05-31T06:12:40.328Z,16.60
2017-05-31T06:15:08.206Z,16.60
2017-05-31T06:17:36.121Z,16.70
2017-05-31T06:20:03.612Z,16.70
2017-05-31T06:22:31.496Z,16.80
2017-05-31T06:24:59.509Z,17.10
2017-05-31T06:27:27.395Z,17.20
2017-05-31T06:29:55.264Z,17.30
2017-05-31T06:32:23.177Z,17.40
2017-05-31T06:34:51.046Z,17.40
2017-05-31T06:37:18.918Z,17.40
2017-05-31T06:39:46.450Z,17.40
2017-05-31T06:42:14.323Z,17.10
2017-05-31T06:44:42.203Z,17.40
2017-05-31T06:47:10.399Z,17.30
2017-05-31T06:49:38.278Z,17.50
2017-05-31T06:52:06.147Z,17.70
2017-05-31T06:54:34.054Z,17.40
2017-05-31T06:57:01.927Z,17.40
2017-05-31T06:59:29.838Z,17.30
2017-05-31T07:01:57.745Z,17.50
2017-05-31T07:04:25.621Z,17.80
2017-05-31T07:06:53.498Z,17.80
2017-05-31T07:09:21.010Z,17.80
2017-05-31T07:11:48.893Z,17.80
2017-05-31T07:14:16.378Z,17.90
2017-05-31T07:16:43.923Z,17.90
2017-05-31T07:19:11.818Z,18.30
2017-05-31T07:21:39.710Z,18.10
2017-05-31T07:24:07.614Z,18.00
2017-05-31T07:26:35.533Z,17.80
2017-05-31T07:29:03.646Z,18.10
2017-05-31T07:31:31.760Z,18.20
2017-05-31T07:33:59.265Z,18.20
2017-05-31T07:36:27.156Z,18.70
2017-05-31T07:38:55.058Z,18.40
2017-05-31T07:41:22.939Z,18.70
2017-05-31T07:43:50.829Z,18.60
2017-05-31T07:46:18.834Z,18.00
2017-05-31T07:48:46.717Z,18.10
2017-05-31T07:51:14.595Z,18.30
2017-05-31T07:53:43.074Z,18.50
2017-05-31T07:56:11.387Z,18.30
2017-05-31T07:58:39.254Z,18.30
2017-05-31T08:01:07.183Z,18.50
2017-05-31T08:03:35.186Z,18.20
2017-05-31T08:06:03.081Z,17.90
2017-05-31T08:08:30.605Z,17.90
2017-05-31T08:10:58.477Z,18.00
2017-05-31T08:13:26.137Z,18.10
2017-05-31T08:15:54.234Z,18.70
2017-05-31T08:18:22.107Z,18.70
2017-05-31T08:20:49.603Z,18.70
2017-05-31T08:23:17.519Z,19.20
2017-05-31T08:25:45.399Z,19.10
2017-05-31T08:28:12.870Z,19.10
2017-05-31T08:30:40.799Z,19.40
2017-05-31T08:33:08.680Z,19.30
2017-05-31T08:35:36.154Z,19.30
2017-05-31T08:38:04.055Z,19.10
2017-05-31T08:40:31.634Z,19.10
2017-05-31T08:42:59.523Z,19.30
2017-05-31T08:45:27.460Z,19.20
2017-05-31T08:47:55.727Z,19.50
2017-05-31T08:50:23.603Z,19.20
2017-05-31T08:52:51.947Z,19.30
2017-05-31T08:55:19.849Z,19.30
2017-05-31T08:57:47.720Z,19.20
2017-05-31T09:00:15.637Z,19.50
2017-05-31T09:02:43.138Z,19.50
2017-05-31T09:05:11.910Z,19.20
2017-05-31T09:07:39.822Z,19.60
2017-05-31T09:10:07.698Z,19.10
2017-05-31T09:12:35.578Z,19.20
2017-05-31T09:15:03.709Z,19.20
2017-05-31T09:17:31.186Z,19.20
2017-05-31T09:19:59.062Z,19.60
2017-05-31T09:22:26.994Z,19.80
2017-05-31T09:24:54.490Z,19.80
2017-05-31T09:27:21.973Z,19.80
2017-05-31T09:29:50.760Z,19.90
2017-05-31T09:32:18.979Z,19.70
2017-05-31T09:34:46.851Z,19.30
2017-05-31T09:37:14.856Z,19.40
2017-05-31T09:39:42.343Z,19.40
2017-05-31T09:42:10.698Z,19.10
2017-05-31T09:44:38.600Z,19.20
2017-05-31T09:47:06.495Z,19.40
2017-05-31T09:49:34.298Z,19.50
2017-05-31T09:52:02.189Z,19.70
2017-05-31T09:54:30.575Z,19.60
2017-05-31T09:56:58.458Z,19.00
2017-05-31T09:59:26.361Z,19.20
2017-05-31T10:01:54.419Z,19.60
2017-05-31T10:04:22.299Z,20.00
2017-05-31T10:06:50.374Z,19.70
2017-05-31T10:09:18.521Z,19.40
2017-05-31T10:14:20.721Z,19.40
2017-05-31T10:16:48.612Z,19.70
2017-05-31T10:19:16.498Z,19.40
2017-05-31T10:21:44.409Z,19.70
2017-05-31T10:24:11.901Z,19.70
2017-05-31T10:26:40.221Z,20.20
2017-05-31T10:29:08.250Z,20.30
2017-05-31T10:31:36.119Z,20.00
2017-05-31T10:34:03.607Z,20.00
2017-05-31T10:36:31.130Z,20.10
2017-05-31T10:38:59.020Z,20.30
2017-05-31T10:41:26.895Z,20.00
2017-05-31T10:43:54.790Z,19.10
2017-05-31T10:46:22.673Z,19.50
2017-05-31T10:48:50.173Z,19.50
2017-05-31T10:51:18.089Z,19.50
2017-05-31T10:53:45.985Z,19.50
2017-05-31T10:56:13.873Z,19.40
2017-05-31T10:58:41.792Z,19.40
2017-05-31T11:01:09.685Z,19.50
2017-05-31T11:03:37.596Z,18.90
2017-05-31T11:06:05.813Z,20.10
2017-05-31T11:08:33.683Z,19.90
2017-05-31T11:11:01.565Z,20.10
2017-05-31T11:13:29.477Z,19.60
2017-05-31T11:15:57.354Z,19.90
2017-05-31T11:18:25.232Z,20.60
2017-05-31T11:20:53.426Z,20.30
2017-05-31T11:23:21.313Z,20.70
2017-05-31T11:25:49.210Z,20.90
2017-05-31T11:28:17.110Z,20.90
2017-05-31T11:30:44.984Z,20.20
2017-05-31T11:33:12.860Z,20.20
2017-05-31T11:35:40.806Z,20.50
2017-05-31T11:38:08.714Z,20.60
2017-05-31T11:40:36.589Z,20.40
2017-05-31T11:43:04.706Z,20.60
2017-05-31T11:45:32.596Z,20.40
2017-05-31T11:48:00.485Z,20.00
2017-05-31T11:50:28.782Z,19.70
2017-05-31T11:52:56.654Z,19.90
2017-05-31T11:55:24.531Z,20.30
2017-05-31T11:57:52.457Z,20.70
2017-05-31T12:00:19.933Z,20.70
2017-05-31T12:02:47.826Z,20.20
2017-05-31T12:05:15.873Z,20.30
2017-05-31T12:07:43.366Z,20.30
2017-05-31T12:10:11.257Z,21.20
2017-05-31T12:12:39.154Z,21.40
2017-05-31T12:15:07.031Z,21.00
2017-05-31T12:17:34.540Z,21.00
2017-05-31T12:20:02.679Z,20.90
2017-05-31T12:22:30.550Z,21.30
2017-05-31T12:24:58.045Z,21.30
2017-05-31T12:27:25.970Z,20.60
2017-05-31T12:29:53.839Z,20.60
2017-05-31T12:32:21.726Z,20.60
2017-05-31T12:34:49.881Z,21.40
2017-05-31T12:37:17.387Z,21.40
2017-05-31T12:39:45.293Z,21.20
2017-05-31T12:42:13.175Z,21.30
2017-05-31T12:44:41.154Z,21.30
2017-05-31T12:47:09.043Z,21.10
2017-05-31T12:49:36.950Z,21.00
2017-05-31T12:52:04.844Z,20.90
2017-05-31T12:54:32.329Z,20.90
2017-05-31T12:57:00.266Z,21.20
2017-05-31T12:59:28.161Z,20.80
2017-05-31T13:01:56.030Z,20.80
2017-05-31T13:04:24.129Z,21.60
2017-05-31T13:06:52.728Z,21.60
2017-05-31T13:09:20.636Z,21.40
2017-05-31T13:11:48.560Z,21.40
2017-05-31T13:14:16.438Z,21.00
2017-05-31T13:16:44.797Z,21.20
2017-05-31T13:19:12.301Z,21.20
2017-05-31T13:21:40.206Z,21.50
2017-05-31T13:24:08.150Z,21.50
2017-05-31T13:26:36.080Z,21.50
2017-05-31T13:29:04.012Z,21.40
2017-05-31T13:31:31.887Z,21.60
2017-05-31T13:33:59.812Z,21.80
2017-05-31T13:36:27.307Z,21.80
2017-05-31T13:38:55.203Z,22.40
2017-05-31T13:41:23.102Z,22.40
2017-05-31T13:43:50.977Z,21.30
2017-05-31T13:46:18.857Z,21.80
2017-05-31T13:48:47.050Z,21.70
2017-05-31T13:51:14.942Z,22.10
2017-05-31T13:53:42.840Z,22.10
2017-05-31T13:56:10.950Z,21.70
2017-05-31T13:58:38.859Z,21.90
2017-05-31T14:01:06.767Z,21.70
2017-05-31T14:03:34.707Z,21.70
2017-05-31T14:06:02.586Z,22.50
2017-05-31T14:08:30.302Z,22.50
2017-05-31T14:10:58.201Z,22.40
2017-05-31T14:13:26.107Z,22.60
2017-05-31T14:15:53.586Z,22.60
2017-05-31T14:18:21.526Z,21.30
2017-05-31T14:20:49.433Z,20.60
2017-05-31T14:23:17.344Z,20.50
2017-05-31T14:25:45.208Z,20.50
2017-05-31T14:28:13.073Z,20.10
2017-05-31T14:30:40.962Z,20.10
2017-05-31T14:33:08.854Z,19.60
2017-05-31T14:35:36.760Z,19.70
2017-05-31T14:38:04.644Z,20.20
2017-05-31T14:40:32.923Z,20.20
2017-05-31T14:43:01.890Z,20.20
2017-05-31T14:45:29.793Z,19.90
2017-05-31T14:47:57.403Z,19.90
2017-05-31T14:50:25.288Z,19.40
2017-05-31T14:52:53.178Z,19.40
2017-05-31T14:55:21.097Z,19.60
2017-05-31T14:57:48.578Z,19.50
2017-05-31T15:00:17.049Z,19.40
2017-05-31T15:02:45.249Z,18.70
2017-05-31T15:05:12.750Z,18.70
2017-05-31T15:07:40.233Z,18.90
2017-05-31T15:10:07.744Z,19.30
2017-05-31T15:12:35.625Z,19.30
2017-05-31T15:15:03.524Z,18.80
2017-05-31T15:17:31.812Z,18.60
2017-05-31T15:19:59.828Z,18.60
2017-05-31T15:22:27.314Z,18.90
2017-05-31T15:27:30.860Z,19.00
2017-05-31T15:29:59.030Z,19.10
2017-05-31T15:32:26.540Z,19.10
2017-05-31T15:34:54.445Z,19.00
2017-05-31T15:37:22.367Z,19.00
2017-05-31T15:39:50.271Z,19.20
2017-05-31T15:42:18.184Z,19.00
2017-05-31T15:44:46.215Z,18.80
2017-05-31T15:47:14.116Z,18.80
2017-05-31T15:49:43.200Z,18.70
2017-05-31T15:52:11.938Z,18.50
2017-05-31T15:54:40.425Z,18.00
2017-05-31T15:57:07.931Z,18.00
2017-05-31T15:59:35.856Z,17.90
2017-05-31T16:02:03.378Z,17.90
2017-05-31T16:04:31.299Z,18.20
2017-05-31T16:06:59.542Z,17.90
2017-05-31T16:09:27.021Z,17.90
2017-05-31T16:11:54.900Z,17.70
2017-05-31T16:14:22.834Z,17.80
2017-05-31T16:16:50.944Z,17.80
2017-05-31T16:19:18.840Z,18.10
2017-05-31T16:21:47.509Z,18.00
2017-05-31T16:24:15.388Z,18.00
2017-05-31T16:26:42.893Z,18.00
2017-05-31T16:29:11.135Z,17.70
2017-05-31T16:31:39.101Z,17.60
2017-05-31T16:34:07.044Z,17.50
2017-05-31T16:36:36.040Z,17.50
2017-05-31T16:39:03.943Z,17.40
2017-05-31T16:41:32.048Z,17.50
2017-05-31T16:43:59.968Z,17.30
2017-05-31T16:46:27.866Z,17.40
2017-05-31T16:48:55.754Z,17.30
2017-05-31T16:51:24.635Z,17.10
2017-05-31T16:53:52.568Z,17.10
2017-05-31T16:56:20.579Z,17.30
2017-05-31T16:58:48.832Z,17.00
2017-05-31T17:01:16.723Z,16.80
2017-05-31T17:03:44.715Z,16.70
2017-05-31T17:06:12.899Z,16.80
2017-05-31T17:08:40.842Z,16.80
2017-05-31T17:11:08.815Z,16.80
2017-05-31T17:13:36.844Z,16.80
2017-05-31T17:16:04.831Z,16.70
2017-05-31T17:18:33.745Z,16.80
2017-05-31T17:21:01.692Z,17.00
2017-05-31T17:23:30.206Z,16.80
2017-05-31T17:25:58.331Z,16.80
2017-05-31T17:28:28.042Z,16.80
2017-05-31T17:30:56.031Z,16.70
2017-05-31T17:33:25.409Z,16.60
2017-05-31T17:35:53.522Z,16.30
2017-05-31T17:38:22.076Z,16.60
2017-05-31T17:40:50.188Z,16.80
2017-05-31T17:43:19.276Z,16.80
2017-05-31T17:45:47.699Z,16.50
2017-05-31T17:48:15.904Z,16.50
2017-05-31T17:50:44.293Z,16.60
2017-05-31T17:53:12.607Z,16.60
2017-05-31T17:55:40.979Z,16.40
2017-05-31T17:58:10.649Z,16.40
2017-05-31T18:00:40.189Z,16.10
2017-05-31T18:03:08.554Z,16.10
2017-05-31T18:05:36.598Z,16.10
2017-05-31T18:08:04.879Z,16.20
2017-05-31T18:10:33.193Z,16.10
2017-05-31T18:13:01.728Z,15.90
2017-05-31T18:15:30.057Z,15.90
2017-05-31T18:17:57.977Z,15.90
2017-05-31T18:20:26.414Z,15.90
2017-05-31T18:22:54.745Z,15.90
2017-05-31T18:25:23.081Z,15.90
2017-05-31T18:27:52.417Z,15.80
2017-05-31T18:30:20.770Z,15.60
2017-05-31T18:32:49.267Z,15.70
2017-05-31T18:35:17.861Z,15.80
2017-05-31T18:37:46.303Z,15.80
2017-05-31T18:40:14.640Z,15.70
2017-05-31T18:42:44.094Z,15.50
2017-05-31T18:45:12.530Z,15.50
2017-05-31T18:47:40.968Z,15.50
2017-05-31T18:50:09.735Z,15.50
2017-05-31T18:52:38.076Z,15.70
2017-05-31T18:55:06.789Z,15.40
2017-05-31T18:57:34.971Z,15.40
2017-05-31T19:00:03.389Z,15.40
2017-05-31T19:02:31.747Z,15.20
2017-05-31T19:05:00.258Z,15.40
2017-05-31T19:07:29.478Z,15.50
2017-05-31T19:09:57.819Z,15.40
2017-05-31T19:12:26.399Z,15.30
2017-05-31T19:14:55.035Z,15.20
2017-05-31T19:17:23.818Z,15.10
2017-05-31T19:19:52.249Z,15.00
2017-05-31T19:22:20.780Z,15.40
2017-05-31T19:24:48.721Z,15.40
2017-05-31T19:27:18.239Z,15.30
2017-05-31T19:29:46.579Z,15.20
2017-05-31T19:32:15.961Z,15.20
2017-05-31T19:34:45.501Z,15.30
2017-05-31T19:37:13.822Z,15.30
2017-05-31T19:39:42.435Z,15.20
2017-05-31T19:42:10.903Z,15.10
2017-05-31T19:44:39.236Z,15.20
2017-05-31T19:47:08.103Z,15.20
2017-05-31T19:49:36.897Z,15.10
2017-05-31T19:52:05.224Z,15.00
2017-05-31T19:54:33.185Z,15.00
2017-05-31T19:57:01.839Z,14.80
2017-05-31T19:59:30.250Z,14.70
2017-05-31T20:01:58.261Z,14.80
2017-05-31T20:04:26.263Z,14.90
2017-05-31T20:06:54.295Z,14.80
2017-05-31T20:09:22.641Z,14.80
2017-05-31T20:11:51.378Z,14.90
2017-05-31T20:14:20.279Z,14.90
2017-05-31T20:16:48.606Z,14.70
2017-05-31T20:19:18.237Z,14.70
2017-05-31T20:21:46.882Z,14.80
2017-05-31T20:24:19.058Z,14.70
2017-05-31T20:26:47.931Z,14.90
2017-05-31T20:29:17.535Z,14.70
2017-05-31T20:31:46.221Z,14.80
2017-05-31T20:34:15.181Z,14.80
2017-05-31T20:36:43.710Z,14.60
2017-05-31T20:39:12.026Z,14.60
2017-05-31T20:41:41.618Z,14.50
2017-05-31T20:44:10.621Z,14.60
2017-05-31T20:46:39.227Z,14.60
2017-05-31T20:49:07.785Z,14.50
2017-05-31T20:51:36.164Z,14.50
2017-05-31T20:54:04.578Z,14.40
2017-05-31T20:56:36.170Z,14.50
2017-05-31T20:59:04.491Z,14.40
2017-05-31T21:01:32.939Z,14.10
2017-05-31T21:04:01.213Z,14.20
2017-05-31T21:06:29.429Z,14.30
2017-05-31T21:08:58.317Z,14.40
2017-05-31T21:11:26.615Z,14.40
2017-05-31T21:13:54.918Z,14.30
2017-05-31T21:16:23.279Z,14.30
2017-05-31T21:18:51.785Z,14.20
2017-05-31T21:21:20.471Z,14.50
2017-05-31T21:23:48.602Z,14.50
2017-05-31T21:26:16.919Z,14.40
2017-05-31T21:28:45.633Z,14.40
2017-05-31T21:31:14.113Z,14.20
2017-05-31T21:33:42.163Z,14.20
2017-05-31T21:36:10.144Z,14.40
2017-05-31T21:38:38.325Z,14.20
2017-05-31T21:41:06.256Z,13.90
2017-05-31T21:43:34.817Z,13.80
2017-05-31T21:46:03.016Z,13.60
2017-05-31T21:48:32.044Z,13.80
2017-05-31T21:50:59.563Z,13.80
2017-05-31T21:53:27.486Z,13.50
2017-05-31T21:55:55.007Z,13.50
2017-05-31T21:58:22.897Z,13.40
2017-05-31T22:00:51.412Z,13.40
2017-05-31T22:03:19.286Z,13.40
2017-05-31T22:05:47.163Z,13.40
2017-05-31T22:08:14.705Z,13.40
2017-05-31T22:10:42.204Z,13.50
2017-05-31T22:13:10.121Z,13.50
2017-05-31T22:15:38.461Z,13.40
2017-05-31T22:18:05.950Z,13.40
2017-05-31T22:20:34.000Z,13.20
2017-05-31T22:23:02.111Z,13.10
2017-05-31T22:25:29.987Z,13.20
2017-05-31T22:27:57.887Z,13.10
2017-05-31T22:30:26.024Z,12.90
2017-05-31T22:32:53.926Z,13.00
2017-05-31T22:35:21.834Z,12.90
2017-05-31T22:37:50.337Z,13.10
2017-05-31T22:40:18.233Z,13.00
2017-05-31T22:42:46.106Z,13.10
2017-05-31T22:45:14.021Z,13.20
2017-05-31T22:47:41.944Z,13.00
2017-05-31T22:50:09.810Z,12.90
2017-05-31T22:52:38.625Z,12.90
2017-05-31T22:55:06.521Z,12.80
2017-05-31T22:57:34.399Z,12.80
2017-05-31T23:00:02.305Z,12.70
2017-05-31T23:02:30.206Z,12.70
2017-05-31T23:04:57.707Z,12.70
2017-05-31T23:09:58.558Z,12.80
2017-05-31T23:12:26.058Z,13.00
2017-05-31T23:14:53.934Z,13.00
2017-05-31T23:17:21.678Z,13.00
2017-05-31T23:19:49.578Z,12.80
2017-05-31T23:25:01.686Z,12.90
2017-05-31T23:27:29.769Z,12.80
2017-05-31T23:29:57.248Z,12.80
2017-05-31T23:32:24.732Z,12.80
2017-05-31T23:34:52.631Z,12.60
2017-05-31T23:37:20.504Z,12.60
2017-05-31T23:39:47.996Z,12.60
2017-05-31T23:42:16.012Z,12.90
2017-05-31T23:44:43.901Z,13.00
2017-05-31T23:47:11.793Z,12.90
2017-05-31T23:49:40.683Z,12.80
2017-05-31T23:52:08.584Z,12.70
2017-05-31T23:54:36.474Z,12.70
2017-05-31T23:57:04.718Z,12.40
2017-05-31T23:59:32.437Z,12.40
